Airfield :
LOGIN :

Register | Disclaimer

   EN    FR    IT 

 










Legend :    VFR   Marginal VFR   IFR   Intensive IFR   Very Intensive IFR
Visi :
Ceiling :
>= 8 km
>= 3000ft
5 to 8 km
1000 to 3000 ft
1500m to 5 km
500 to 1000 ft
800 to 1500m
200 to 500 ft
< 800m
< 200 ft
Symbols :   Thunderstorms  Fog  Heavy snow  Heavy precipitations  Wind > 20 kt
SIGMETs :     Misc.  Thunderstorms  Icing  Turbulence  Mountain Waves  Volcanic Ashes







- Airport Elevation : 184 ft
- IATA code : BRU


EBBR - Bruxelles

CURRENT METAR :
  • 241650Z 34011KT 300V010 CAVOK 19/07 Q1016 NOSIG

EXPIRED METARs :
  • 241620Z 34010KT 300V010 CAVOK 20/08 Q1015 NOSIG
  • 241550Z 34011KT 300V360 CAVOK 20/09 Q1015 NOSIG
  • 241520Z 33012KT 300V010 9999 FEW048 20/10 Q1015 NOSIG
  • 241450Z 32011KT CAVOK 21/09 Q1015 NOSIG
  • 241420Z 32006KT 280V010 CAVOK 22/05 Q1015 NOSIG

TAF TAF EBBR
Valid from the 24 at 12:00 until the 25 at 18:00 UTC


241110Z 2412/2518 27006KT CAVOK
PROB30
TEMPO 2511/2514 3000 SHRA SCT010 BKN014CB
No reported NOTAMs for that airfield.



MET'MAP, your aeronautical weather chart ! - Copyright ORBIFLY December 2007 - Disclaimer

ORBIFLY MET'MAP TEAM :

Programming & Development : Alexandra Zaïnal
Concept & Development : Baudouin d'Aumeries
Co-Development & Prog : Marc-Olivier Méhu
Technical & hardware support : Manuel Goepfert

Contact : metmap@orbifly.com




SOURCES & CREDITS :

   NOAA